Time;durP1;ratioP1;P1;durP2;ratioP2;P2;SDS_P1;SDS_P2;PMS_P1;PMS_P2;Temp;Humidity;BMP_temperature;BMP_pressure;BME280_temperature;BME280_humidity;BME280_pressure;Samples;Min_cycle;Max_cycle;Signal;HPM_P1;HPM_P2
2022/12/20 00:00:42;;;;;;;;;;;5.50;99.90;;;;;;5019372;28;19913;-77
2022/12/20 00:03:08;;;;;;;;;;;5.50;99.90;;;;;;5022330;28;20327;-78
2022/12/20 00:05:37;;;;;;;;;;;5.50;99.90;;;;;;5020143;28;19909;-77
2022/12/20 00:08:02;;;;;;;;;;;5.50;99.90;;;;;;5025797;28;19917;-77
2022/12/20 00:10:28;;;;;;;;;;;5.50;99.90;;;;;;5021910;28;19910;-76
2022/12/20 00:15:21;;;;;;;;;;;5.60;99.90;;;;;;5001450;28;19972;-57
2022/12/20 00:17:46;;;;;;;;;;;5.60;99.90;;;;;;4999576;28;20340;-56
2022/12/20 00:20:12;;;;;;;;;;;5.60;99.90;;;;;;5004597;28;20053;-57
2022/12/20 00:22:38;;;;;;;;;;;5.60;99.90;;;;;;5000409;28;19992;-54
2022/12/20 00:25:04;;;;;;;;;;;5.70;99.90;;;;;;5001642;28;19983;-55
2022/12/20 00:27:29;;;;;;;;;;;5.70;99.90;;;;;;5004063;28;19944;-57
2022/12/20 00:29:55;;;;;;;;;;;5.70;99.90;;;;;;4999075;28;19923;-56
2022/12/20 00:32:20;;;;;;;;;;;5.70;99.90;;;;;;5011943;28;19910;-57
2022/12/20 00:34:45;;;;;;;;;;;5.70;99.90;;;;;;5000706;28;20414;-58
2022/12/20 00:37:11;;;;;;;;;;;5.80;99.90;;;;;;5001984;28;19917;-57
2022/12/20 00:39:36;;;;;;;;;;;5.80;99.90;;;;;;5004983;28;20166;-57
2022/12/20 00:42:02;;;;;;;;;;;5.90;99.90;;;;;;5000702;28;19910;-56
2022/12/20 00:44:27;;;;;;;;;;;5.80;99.90;;;;;;5005552;28;20387;-57
2022/12/20 00:46:53;;;;;;;;;;;5.80;99.90;;;;;;5002958;28;19914;-55
2022/12/20 00:49:18;;;;;;;;;;;5.80;99.90;;;;;;5005518;28;19921;-53
2022/12/20 00:51:44;;;;;;;;;;;5.80;99.90;;;;;;5007796;28;19922;-56
2022/12/20 00:54:09;;;;;;;;;;;5.90;99.90;;;;;;4995743;28;19924;-57
2022/12/20 00:56:35;;;;;;;;;;;5.90;99.90;;;;;;5005127;28;20020;-57
2022/12/20 00:59:00;;;;;;;;;;;6.00;99.90;;;;;;4999101;28;19914;-56
2022/12/20 01:01:30;;;;;;;;;;;5.90;99.90;;;;;;5005792;28;19917;-58
2022/12/20 01:03:55;;;;;;;;;;;5.90;99.90;;;;;;4996964;28;19914;-57
2022/12/20 01:06:21;;;;;;;;;;;5.90;99.90;;;;;;5006922;28;19910;-56
2022/12/20 01:08:47;;;;;;;;;;;5.90;99.90;;;;;;4995622;28;19965;-55
2022/12/20 01:11:14;;;;;;;;;;;5.90;99.90;;;;;;4997068;28;20331;-56
2022/12/20 01:13:41;;;;;;;;;;;5.90;99.90;;;;;;5004809;28;20388;-57
2022/12/20 01:16:08;;;;;;;;;;;6.00;99.90;;;;;;4995485;28;20024;-53
2022/12/20 01:18:34;;;;;;;;;;;5.90;99.90;;;;;;5004031;28;19913;-52
2022/12/20 01:21:01;;;;;;;;;;;5.90;99.90;;;;;;5003377;28;19910;-58
2022/12/20 01:23:26;;;;;;;;;;;5.90;99.90;;;;;;5010481;28;19918;-56
2022/12/20 01:25:52;;;;;;;;;;;5.90;99.90;;;;;;5005344;28;19917;-54
2022/12/20 01:28:17;;;;;;;;;;;5.90;99.90;;;;;;5000827;28;19932;-57
2022/12/20 01:30:43;;;;;;;;;;;5.90;99.90;;;;;;5000596;28;19953;-58
2022/12/20 01:33:09;;;;;;;;;;;5.90;99.90;;;;;;5001105;28;19921;-56
2022/12/20 01:35:34;;;;;;;;;;;6.00;99.90;;;;;;5001214;28;20292;-56
2022/12/20 01:37:59;;;;;;;;;;;6.00;99.90;;;;;;4997153;28;19983;-56
2022/12/20 01:40:25;;;;;;;;;;;6.00;99.90;;;;;;5004117;28;19992;-57
2022/12/20 01:42:51;;;;;;;;;;;6.00;99.90;;;;;;5002100;28;20429;-57
2022/12/20 01:45:22;;;;;;;;;;;6.00;99.90;;;;;;5002979;28;19996;-56
2022/12/20 01:47:47;;;;;;;;;;;6.10;99.90;;;;;;5001543;28;19910;-56
2022/12/20 01:50:12;;;;;;;;;;;6.10;99.90;;;;;;5006318;28;20169;-56
2022/12/20 01:52:39;;;;;;;;;;;6.10;99.90;;;;;;4999507;28;19933;-56
2022/12/20 01:55:08;;;;;;;;;;;6.10;99.90;;;;;;5002590;28;19917;-57
2022/12/20 01:57:36;;;;;;;;;;;6.10;99.90;;;;;;5002145;28;19918;-57
2022/12/20 02:00:03;;;;;;;;;;;6.10;99.90;;;;;;4998530;28;19914;-56
2022/12/20 02:02:29;;;;;;;;;;;6.10;99.90;;;;;;4999450;28;19914;-57
2022/12/20 02:04:54;;;;;;;;;;;6.10;99.90;;;;;;4996679;28;20056;-57
2022/12/20 02:07:22;;;;;;;;;;;6.20;99.90;;;;;;5002022;28;19910;-57
2022/12/20 02:09:48;;;;;;;;;;;6.20;99.90;;;;;;5002121;28;20645;-57
2022/12/20 02:12:15;;;;;;;;;;;6.20;99.90;;;;;;5002400;28;19940;-56
2022/12/20 02:14:43;;;;;;;;;;;6.30;99.90;;;;;;5001266;28;19917;-54
2022/12/20 02:17:18;;;;;;;;;;;6.30;99.90;;;;;;5002598;28;20236;-57
2022/12/20 02:19:53;;;;;;;;;;;6.30;99.90;;;;;;5000309;28;19964;-56
2022/12/20 02:22:35;;;;;;;;;;;6.30;99.90;;;;;;5002382;28;19949;-55
2022/12/20 02:25:12;;;;;;;;;;;6.30;99.90;;;;;;4994865;28;19910;-57
2022/12/20 02:27:58;;;;;;;;;;;6.30;99.90;;;;;;5001041;28;19920;-57
2022/12/20 02:30:25;;;;;;;;;;;6.40;99.90;;;;;;5001937;28;19979;-56
2022/12/20 02:32:51;;;;;;;;;;;6.40;99.90;;;;;;4999445;28;20372;-55
2022/12/20 02:35:24;;;;;;;;;;;6.40;99.90;;;;;;4998191;28;19928;-58
2022/12/20 02:37:50;;;;;;;;;;;6.40;99.90;;;;;;5001518;28;19914;-57
2022/12/20 02:40:18;;;;;;;;;;;6.40;99.90;;;;;;4998706;28;19914;-57
2022/12/20 02:42:44;;;;;;;;;;;6.40;99.90;;;;;;5005487;28;20004;-58
2022/12/20 02:45:16;;;;;;;;;;;6.50;99.90;;;;;;4998792;28;20013;-57
2022/12/20 02:47:51;;;;;;;;;;;6.40;99.90;;;;;;5000016;28;19909;-57
2022/12/20 02:50:20;;;;;;;;;;;6.50;99.90;;;;;;4995481;28;19918;-57
2022/12/20 02:52:46;;;;;;;;;;;6.50;99.90;;;;;;4998781;28;19914;-56
2022/12/20 02:55:11;;;;;;;;;;;6.50;99.90;;;;;;5002912;28;20297;-57
2022/12/20 02:57:41;;;;;;;;;;;6.50;99.90;;;;;;4998962;28;19992;-57
2022/12/20 03:00:11;;;;;;;;;;;6.60;99.90;;;;;;5001361;28;19913;-57
2022/12/20 03:05:22;;;;;;;;;;;6.60;99.90;;;;;;5000562;28;19921;-54
2022/12/20 03:07:48;;;;;;;;;;;6.70;99.90;;;;;;5000825;28;19914;-57
2022/12/20 03:10:13;;;;;;;;;;;6.70;99.90;;;;;;5000461;28;19910;-58
2022/12/20 03:12:39;;;;;;;;;;;6.60;99.90;;;;;;5000444;28;19953;-58
2022/12/20 03:15:04;;;;;;;;;;;6.60;99.90;;;;;;5001323;28;20007;-56
2022/12/20 03:17:30;;;;;;;;;;;6.60;99.90;;;;;;4999745;28;19910;-56
2022/12/20 03:19:55;;;;;;;;;;;6.70;99.90;;;;;;5001639;28;19945;-57
2022/12/20 03:22:22;;;;;;;;;;;6.70;99.90;;;;;;5000729;28;19910;-57
2022/12/20 03:24:48;;;;;;;;;;;6.70;99.90;;;;;;5000418;28;19976;-57
2022/12/20 03:27:13;;;;;;;;;;;6.70;99.90;;;;;;5025092;23;20408;-60
2022/12/20 03:29:39;;;;;;;;;;;6.70;99.90;;;;;;5028970;28;19917;-60
2022/12/20 03:32:04;;;;;;;;;;;6.80;99.90;;;;;;5029077;28;19921;-60
2022/12/20 03:34:30;;;;;;;;;;;6.80;99.90;;;;;;5027357;28;19940;-59
2022/12/20 03:36:55;;;;;;;;;;;6.80;99.90;;;;;;5029440;28;20004;-61
2022/12/20 03:39:20;;;;;;;;;;;6.90;99.90;;;;;;5027277;28;19959;-59
2022/12/20 03:41:46;;;;;;;;;;;7.00;99.90;;;;;;5028999;28;19945;-60
2022/12/20 03:44:11;;;;;;;;;;;7.00;99.90;;;;;;5024529;28;19913;-60
2022/12/20 03:46:37;;;;;;;;;;;7.00;99.90;;;;;;5027385;28;19936;-59
2022/12/20 03:49:02;;;;;;;;;;;7.00;99.90;;;;;;5028998;28;20371;-59
2022/12/20 03:51:28;;;;;;;;;;;7.00;99.90;;;;;;5017662;28;20392;-60
2022/12/20 03:53:53;;;;;;;;;;;7.00;99.90;;;;;;5027509;28;20507;-60
2022/12/20 03:56:19;;;;;;;;;;;7.00;99.90;;;;;;5020431;28;20015;-60
2022/12/20 03:58:44;;;;;;;;;;;7.00;99.90;;;;;;5022419;28;19914;-58
2022/12/20 04:01:37;;;;;;;;;;;7.10;99.90;;;;;;5026578;28;19913;-58
2022/12/20 04:04:03;;;;;;;;;;;7.10;99.90;;;;;;5027631;28;19917;-59
2022/12/20 04:06:28;;;;;;;;;;;7.10;99.90;;;;;;5031075;28;19910;-59
2022/12/20 04:08:54;;;;;;;;;;;7.10;99.90;;;;;;5027954;28;20298;-59
2022/12/20 04:11:19;;;;;;;;;;;7.10;99.90;;;;;;5032414;28;19915;-59
2022/12/20 04:13:45;;;;;;;;;;;7.10;99.90;;;;;;5025632;28;19932;-60
2022/12/20 04:16:13;;;;;;;;;;;7.10;99.90;;;;;;5032551;28;19956;-58
2022/12/20 04:18:39;;;;;;;;;;;7.20;99.90;;;;;;5018700;28;19987;-58
2022/12/20 04:21:06;;;;;;;;;;;7.20;99.90;;;;;;5031816;28;19909;-59
2022/12/20 04:23:35;;;;;;;;;;;7.20;99.90;;;;;;5031764;28;19957;-59
2022/12/20 04:26:01;;;;;;;;;;;7.30;99.90;;;;;;5027906;28;19956;-57
2022/12/20 04:28:27;;;;;;;;;;;7.30;99.90;;;;;;5032117;28;19917;-59
2022/12/20 04:30:52;;;;;;;;;;;7.40;99.90;;;;;;5025374;28;19921;-59
2022/12/20 04:33:18;;;;;;;;;;;7.40;99.90;;;;;;5032007;28;19955;-60
2022/12/20 04:35:43;;;;;;;;;;;7.40;99.90;;;;;;5023563;28;19924;-58
2022/12/20 04:38:09;;;;;;;;;;;7.40;99.90;;;;;;5029147;28;19913;-58
2022/12/20 04:40:34;;;;;;;;;;;7.40;99.90;;;;;;5029493;28;20406;-58
2022/12/20 04:42:59;;;;;;;;;;;7.50;99.90;;;;;;5029726;28;19909;-57
2022/12/20 04:45:25;;;;;;;;;;;7.40;99.90;;;;;;5028824;28;19960;-58
2022/12/20 04:47:50;;;;;;;;;;;7.50;99.90;;;;;;5030848;28;20350;-59
2022/12/20 04:50:17;;;;;;;;;;;7.50;99.90;;;;;;5028416;28;19909;-57
2022/12/20 04:55:27;;;;;;;;;;;7.50;99.90;;;;;;5029863;28;19927;-59
2022/12/20 04:57:53;;;;;;;;;;;7.50;99.90;;;;;;5029526;28;20020;-59
2022/12/20 05:00:19;;;;;;;;;;;7.50;99.90;;;;;;5030356;28;20081;-59
2022/12/20 05:02:44;;;;;;;;;;;7.50;99.90;;;;;;5027244;28;19948;-59
2022/12/20 05:05:10;;;;;;;;;;;7.50;99.90;;;;;;5025065;28;19976;-58
2022/12/20 05:07:35;;;;;;;;;;;7.40;99.90;;;;;;5031003;28;20008;-58
2022/12/20 05:10:01;;;;;;;;;;;7.40;99.90;;;;;;5030711;28;20000;-59
2022/12/20 05:12:26;;;;;;;;;;;7.40;99.90;;;;;;5031269;28;19938;-59
2022/12/20 05:14:51;;;;;;;;;;;7.40;99.90;;;;;;5028315;28;20015;-59
2022/12/20 05:17:17;;;;;;;;;;;7.40;99.90;;;;;;5025576;28;19948;-59
2022/12/20 05:19:42;;;;;;;;;;;7.40;99.90;;;;;;5030772;28;19959;-59
2022/12/20 05:27:37;;;;;;;;;;;7.40;99.90;;;;;;5028993;28;19951;-60
2022/12/20 05:30:04;;;;;;;;;;;7.40;99.90;;;;;;5028709;28;19913;-60
2022/12/20 05:32:29;;;;;;;;;;;7.40;99.90;;;;;;5030019;28;19913;-59
2022/12/20 05:34:55;;;;;;;;;;;7.40;99.90;;;;;;5023837;28;19917;-60
2022/12/20 05:37:20;;;;;;;;;;;7.30;99.90;;;;;;5028159;28;19965;-60
2022/12/20 05:39:46;;;;;;;;;;;7.30;99.90;;;;;;5025038;28;19913;-60
2022/12/20 05:42:11;;;;;;;;;;;7.30;99.90;;;;;;5030814;28;19913;-59
2022/12/20 05:44:37;;;;;;;;;;;7.30;99.90;;;;;;5023457;28;19921;-60
2022/12/20 05:47:02;;;;;;;;;;;7.30;99.90;;;;;;5028955;28;20375;-59
2022/12/20 05:49:27;;;;;;;;;;;7.30;99.90;;;;;;5030336;28;20280;-59
2022/12/20 05:51:53;;;;;;;;;;;7.30;99.90;;;;;;5029604;28;19909;-59
2022/12/20 05:54:18;;;;;;;;;;;7.30;99.90;;;;;;5030182;28;19918;-59
2022/12/20 05:56:44;;;;;;;;;;;7.30;99.90;;;;;;5026258;28;19955;-59
2022/12/20 05:59:09;;;;;;;;;;;7.30;99.90;;;;;;5022498;28;19921;-59
2022/12/20 06:01:35;;;;;;;;;;;7.30;99.90;;;;;;5034727;28;19909;-60
2022/12/20 06:04:01;;;;;;;;;;;7.30;99.90;;;;;;5029919;28;19955;-57
2022/12/20 06:06:26;;;;;;;;;;;7.30;99.90;;;;;;5027753;28;20002;-59
2022/12/20 06:08:52;;;;;;;;;;;7.30;99.90;;;;;;5025581;28;19913;-58
2022/12/20 06:11:17;;;;;;;;;;;7.30;99.90;;;;;;5030787;28;19913;-58
2022/12/20 06:13:43;;;;;;;;;;;7.40;99.90;;;;;;5024355;28;19913;-57
2022/12/20 06:16:08;;;;;;;;;;;7.40;99.90;;;;;;5024113;28;20331;-60
2022/12/20 06:18:34;;;;;;;;;;;7.50;99.90;;;;;;5025356;28;19945;-59
2022/12/20 06:21:00;;;;;;;;;;;7.50;99.90;;;;;;5028109;28;19916;-59
2022/12/20 06:23:26;;;;;;;;;;;7.50;99.90;;;;;;5028629;28;20434;-59
2022/12/20 06:25:51;;;;;;;;;;;7.50;99.90;;;;;;5025056;28;19996;-59
2022/12/20 06:28:20;;;;;;;;;;;7.40;99.90;;;;;;5028869;28;19925;-59
2022/12/20 06:30:52;;;;;;;;;;;7.40;99.90;;;;;;5023923;28;19913;-59
2022/12/20 06:33:18;;;;;;;;;;;7.50;99.90;;;;;;5030524;28;20016;-58
2022/12/20 06:35:43;;;;;;;;;;;7.40;99.90;;;;;;5026714;28;20448;-58
2022/12/20 06:38:09;;;;;;;;;;;7.50;99.90;;;;;;5027926;28;20138;-58
2022/12/20 06:40:34;;;;;;;;;;;7.50;99.90;;;;;;5027536;28;19956;-59
2022/12/20 06:43:00;;;;;;;;;;;7.50;99.90;;;;;;5027141;28;19913;-58
2022/12/20 06:45:25;;;;;;;;;;;7.60;99.90;;;;;;5021186;28;19948;-58
2022/12/20 06:47:51;;;;;;;;;;;7.60;99.90;;;;;;5021475;28;19913;-58
2022/12/20 06:50:16;;;;;;;;;;;7.60;99.90;;;;;;5026165;28;19915;-57
2022/12/20 06:52:42;;;;;;;;;;;7.70;99.90;;;;;;5027085;28;19913;-59
2022/12/20 06:55:07;;;;;;;;;;;7.70;99.90;;;;;;5024776;28;19928;-55
2022/12/20 06:57:33;;;;;;;;;;;7.70;99.90;;;;;;5026371;28;19913;-59
2022/12/20 06:59:58;;;;;;;;;;;7.70;99.90;;;;;;5021739;28;19963;-59
2022/12/20 07:02:24;;;;;;;;;;;7.80;99.90;;;;;;5023960;28;19917;-59
2022/12/20 07:04:49;;;;;;;;;;;7.80;99.90;;;;;;5025701;28;19920;-60
2022/12/20 07:07:16;;;;;;;;;;;7.80;99.90;;;;;;5023921;28;20887;-59
2022/12/20 07:09:41;;;;;;;;;;;7.80;99.90;;;;;;5024068;28;19917;-60
2022/12/20 07:12:10;;;;;;;;;;;7.90;99.90;;;;;;5028072;28;19928;-59
2022/12/20 07:14:36;;;;;;;;;;;7.90;99.90;;;;;;5026833;28;19920;-60
2022/12/20 07:17:02;;;;;;;;;;;7.90;99.90;;;;;;5024754;28;20296;-58
2022/12/20 07:19:27;;;;;;;;;;;7.90;99.90;;;;;;5025688;28;20432;-60
2022/12/20 07:21:53;;;;;;;;;;;8.00;99.90;;;;;;5029059;28;19917;-60
2022/12/20 07:24:18;;;;;;;;;;;8.00;99.90;;;;;;5024855;28;20463;-60
2022/12/20 07:26:47;;;;;;;;;;;8.00;99.90;;;;;;5027826;28;19917;-60
2022/12/20 07:29:13;;;;;;;;;;;8.10;99.90;;;;;;5027538;28;19932;-60
2022/12/20 07:31:38;;;;;;;;;;;8.00;99.90;;;;;;5022540;28;19913;-60
2022/12/20 07:34:03;;;;;;;;;;;8.00;99.90;;;;;;5030988;28;20399;-60
2022/12/20 07:36:29;;;;;;;;;;;8.00;99.90;;;;;;5029908;28;19991;-60
2022/12/20 07:38:54;;;;;;;;;;;8.00;99.90;;;;;;5028767;28;20367;-60
2022/12/20 07:41:20;;;;;;;;;;;8.00;99.90;;;;;;5033451;28;19916;-60
2022/12/20 07:43:46;;;;;;;;;;;8.00;99.90;;;;;;5027312;28;20361;-60
2022/12/20 07:46:12;;;;;;;;;;;8.00;99.90;;;;;;5031651;28;19913;-60
2022/12/20 07:48:38;;;;;;;;;;;8.00;99.90;;;;;;5024509;28;19928;-60
2022/12/20 07:51:08;;;;;;;;;;;8.00;99.90;;;;;;5027130;28;19909;-60
2022/12/20 07:53:36;;;;;;;;;;;8.00;99.90;;;;;;5029707;28;19975;-60
2022/12/20 07:56:04;;;;;;;;;;;8.00;99.90;;;;;;5028166;28;19982;-60
2022/12/20 07:58:29;;;;;;;;;;;8.00;99.90;;;;;;5030378;28;19909;-59
2022/12/20 08:00:56;;;;;;;;;;;8.00;99.90;;;;;;5023797;28;19920;-60
2022/12/20 08:03:24;;;;;;;;;;;8.00;99.90;;;;;;5028477;28;19913;-59
2022/12/20 08:05:52;;;;;;;;;;;8.10;99.90;;;;;;5031968;28;19913;-60
2022/12/20 08:08:18;;;;;;;;;;;8.10;99.90;;;;;;5028453;28;20012;-59
2022/12/20 08:10:43;;;;;;;;;;;8.10;99.90;;;;;;5031080;28;20013;-58
2022/12/20 08:13:09;;;;;;;;;;;8.10;99.90;;;;;;5028062;28;19949;-61
2022/12/20 08:15:35;;;;;;;;;;;8.20;99.90;;;;;;5029984;28;19986;-59
2022/12/20 08:18:01;;;;;;;;;;;8.10;99.90;;;;;;5027023;28;20347;-58
2022/12/20 08:20:26;;;;;;;;;;;8.10;99.90;;;;;;5029302;28;19996;-60
2022/12/20 08:22:52;;;;;;;;;;;8.10;99.90;;;;;;5031578;28;20107;-60
2022/12/20 08:25:18;;;;;;;;;;;8.10;99.90;;;;;;5027195;28;19929;-60
2022/12/20 08:27:43;;;;;;;;;;;8.10;99.90;;;;;;5046067;28;20387;-60
2022/12/20 08:30:09;;;;;;;;;;;8.10;99.90;;;;;;5026860;28;19913;-60
2022/12/20 08:32:35;;;;;;;;;;;8.10;99.90;;;;;;5031779;28;20398;-60
2022/12/20 08:35:01;;;;;;;;;;;8.10;99.90;;;;;;5026483;28;19913;-59
2022/12/20 08:37:26;;;;;;;;;;;8.10;99.90;;;;;;5028378;28;19909;-60
2022/12/20 08:39:52;;;;;;;;;;;8.20;99.90;;;;;;5027996;28;20055;-56
2022/12/20 08:42:17;;;;;;;;;;;8.20;99.90;;;;;;5030246;28;19920;-58
2022/12/20 08:44:43;;;;;;;;;;;8.20;99.90;;;;;;5028939;28;19920;-60
2022/12/20 08:47:09;;;;;;;;;;;8.20;99.90;;;;;;5030682;28;19910;-59
2022/12/20 08:49:35;;;;;;;;;;;8.20;99.90;;;;;;5024863;28;20008;-60
2022/12/20 08:52:00;;;;;;;;;;;8.30;99.90;;;;;;5027698;28;19909;-58
2022/12/20 08:54:26;;;;;;;;;;;8.30;99.90;;;;;;5029828;28;19917;-56
2022/12/20 08:56:51;;;;;;;;;;;8.30;99.90;;;;;;5023702;28;20380;-57
2022/12/20 08:59:17;;;;;;;;;;;8.30;99.90;;;;;;5031377;28;19927;-60
2022/12/20 09:01:42;;;;;;;;;;;8.40;99.90;;;;;;5024396;28;19909;-60
2022/12/20 09:04:09;;;;;;;;;;;8.40;99.90;;;;;;5021034;28;20511;-60
2022/12/20 09:06:35;;;;;;;;;;;8.40;99.90;;;;;;5030569;28;19932;-59
2022/12/20 09:09:01;;;;;;;;;;;8.40;99.90;;;;;;5027530;28;19920;-60
2022/12/20 09:11:27;;;;;;;;;;;8.40;99.90;;;;;;5024701;28;19909;-59
2022/12/20 09:13:56;;;;;;;;;;;8.40;99.90;;;;;;5019266;28;19917;-61
2022/12/20 09:16:24;;;;;;;;;;;8.50;99.90;;;;;;5031730;28;19913;-61
2022/12/20 09:18:50;;;;;;;;;;;8.50;99.90;;;;;;5022913;28;19914;-60
2022/12/20 09:21:15;;;;;;;;;;;8.50;99.90;;;;;;5030900;28;20326;-60
2022/12/20 09:23:41;;;;;;;;;;;8.50;99.90;;;;;;5029135;28;19909;-60
2022/12/20 09:26:09;;;;;;;;;;;8.50;99.90;;;;;;5026509;28;19932;-59
2022/12/20 09:28:34;;;;;;;;;;;8.60;99.90;;;;;;5052381;22;19952;-57
2022/12/20 09:31:01;;;;;;;;;;;8.60;99.90;;;;;;5031148;28;19912;-57
2022/12/20 09:33:27;;;;;;;;;;;8.60;99.90;;;;;;5031207;28;19909;-57
2022/12/20 09:35:53;;;;;;;;;;;8.70;99.90;;;;;;5031177;28;19956;-59
2022/12/20 09:38:18;;;;;;;;;;;8.70;99.90;;;;;;5029004;28;19913;-57
2022/12/20 09:40:45;;;;;;;;;;;8.70;99.90;;;;;;5030171;28;20352;-57
2022/12/20 09:43:11;;;;;;;;;;;8.70;99.90;;;;;;5031083;28;19909;-59
2022/12/20 09:45:36;;;;;;;;;;;8.70;99.90;;;;;;5031136;28;20291;-58
2022/12/20 09:48:04;;;;;;;;;;;8.80;99.90;;;;;;5031202;28;19952;-56
2022/12/20 09:50:36;;;;;;;;;;;8.80;99.90;;;;;;5030797;28;19909;-56
2022/12/20 09:53:18;;;;;;;;;;;8.80;99.90;;;;;;5031367;28;19909;-56
2022/12/20 09:55:54;;;;;;;;;;;8.80;99.90;;;;;;5030915;28;19924;-56
2022/12/20 09:58:29;;;;;;;;;;;8.90;99.90;;;;;;5030271;28;20378;-58
2022/12/20 10:00:54;;;;;;;;;;;8.90;99.90;;;;;;5030955;28;19917;-57
2022/12/20 10:03:20;;;;;;;;;;;8.90;99.90;;;;;;5031028;28;19910;-58
2022/12/20 10:05:53;;;;;;;;;;;8.90;99.90;;;;;;5030374;28;19909;-57
2022/12/20 10:08:38;;;;;;;;;;;8.90;99.90;;;;;;5030881;28;19936;-58
2022/12/20 10:11:09;;;;;;;;;;;8.90;99.90;;;;;;5024422;28;19909;-55
2022/12/20 10:13:37;;;;;;;;;;;8.80;99.90;;;;;;5030642;28;19913;-57
2022/12/20 10:16:21;;;;;;;;;;;8.80;99.90;;;;;;5030664;28;19913;-54
2022/12/20 10:19:12;;;;;;;;;;;8.80;99.90;;;;;;5030517;28;19909;-56
2022/12/20 10:21:37;;;;;;;;;;;8.80;99.90;;;;;;5028311;28;19913;-57
2022/12/20 10:24:07;;;;;;;;;;;8.80;99.90;;;;;;5030671;28;19909;-56
2022/12/20 10:26:33;;;;;;;;;;;8.80;99.90;;;;;;5030707;28;19909;-55
2022/12/20 10:28:58;;;;;;;;;;;8.80;99.90;;;;;;5030386;28;19940;-55
2022/12/20 10:31:24;;;;;;;;;;;8.80;99.90;;;;;;5030897;28;19913;-56
2022/12/20 10:33:49;;;;;;;;;;;8.80;99.90;;;;;;5030160;28;19913;-58
2022/12/20 10:36:28;;;;;;;;;;;8.80;99.90;;;;;;5030493;28;19913;-53
2022/12/20 10:38:55;;;;;;;;;;;8.80;99.90;;;;;;5018569;28;19913;-58
2022/12/20 10:41:22;;;;;;;;;;;8.80;99.90;;;;;;5030675;28;19915;-56
2022/12/20 10:43:57;;;;;;;;;;;8.80;99.90;;;;;;5029650;28;19920;-56
2022/12/20 10:46:33;;;;;;;;;;;8.80;99.90;;;;;;5030264;28;19915;-55
2022/12/20 10:49:18;;;;;;;;;;;8.90;99.90;;;;;;5022573;28;19915;-57
2022/12/20 10:51:50;;;;;;;;;;;8.90;99.90;;;;;;5030006;28;19909;-57
2022/12/20 10:54:21;;;;;;;;;;;9.00;99.90;;;;;;5029754;28;19957;-54
2022/12/20 10:56:54;;;;;;;;;;;9.00;99.90;;;;;;5028750;28;20012;-55
2022/12/20 10:59:20;;;;;;;;;;;9.00;99.90;;;;;;5040381;28;19913;-55
2022/12/20 11:01:46;;;;;;;;;;;9.10;99.90;;;;;;5021846;28;19913;-54
2022/12/20 11:04:31;;;;;;;;;;;9.10;99.90;;;;;;5028711;28;20530;-56
2022/12/20 11:06:57;;;;;;;;;;;9.20;99.90;;;;;;5018104;28;19921;-57
2022/12/20 11:09:26;;;;;;;;;;;9.20;99.90;;;;;;5028381;28;19913;-56
2022/12/20 11:12:04;;;;;;;;;;;9.20;99.90;;;;;;5026512;28;19910;-57
2022/12/20 11:14:31;;;;;;;;;;;9.30;99.90;;;;;;5026335;28;20288;-56
2022/12/20 11:16:59;;;;;;;;;;;9.30;99.90;;;;;;5024406;28;19921;-53
2022/12/20 11:19:33;;;;;;;;;;;9.30;99.90;;;;;;5028748;28;19940;-56
2022/12/20 11:22:02;;;;;;;;;;;9.40;99.90;;;;;;5000951;28;20087;-59
2022/12/20 11:24:30;;;;;;;;;;;9.40;99.90;;;;;;5039232;28;19970;-57
2022/12/20 11:27:14;;;;;;;;;;;9.50;99.90;;;;;;5020637;28;20026;-57
2022/12/20 11:29:42;;;;;;;;;;;9.50;99.90;;;;;;5029734;28;20003;-57
2022/12/20 11:32:32;;;;;;;;;;;9.50;99.90;;;;;;5027244;28;20071;-55
2022/12/20 11:34:57;;;;;;;;;;;9.60;99.90;;;;;;5021688;28;19955;-57
2022/12/20 11:37:24;;;;;;;;;;;9.70;99.90;;;;;;5027589;28;19913;-56
2022/12/20 11:39:58;;;;;;;;;;;9.70;99.90;;;;;;5025551;28;20361;-56
2022/12/20 11:42:24;;;;;;;;;;;9.70;99.90;;;;;;5029528;28;20425;-58
2022/12/20 11:45:04;;;;;;;;;;;9.80;99.90;;;;;;5029069;28;19909;-58
2022/12/20 11:47:39;;;;;;;;;;;9.80;99.90;;;;;;5029610;28;19954;-58
2022/12/20 11:50:24;;;;;;;;;;;9.70;99.90;;;;;;5029540;28;19957;-57
2022/12/20 11:52:51;;;;;;;;;;;9.80;99.90;;;;;;5029048;28;20012;-57
2022/12/20 11:55:23;;;;;;;;;;;9.80;99.90;;;;;;5028950;28;19921;-58
2022/12/20 11:57:49;;;;;;;;;;;9.80;99.90;;;;;;5029450;28;20111;-54
2022/12/20 12:00:16;;;;;;;;;;;9.80;99.90;;;;;;5028728;28;20036;-59
2022/12/20 12:02:52;;;;;;;;;;;9.80;99.90;;;;;;5020903;28;20414;-57
2022/12/20 12:05:27;;;;;;;;;;;9.80;99.90;;;;;;5028123;28;19929;-55
2022/12/20 12:07:58;;;;;;;;;;;9.80;99.90;;;;;;5029029;28;19910;-57
2022/12/20 12:10:25;;;;;;;;;;;9.80;99.90;;;;;;5028478;28;19917;-55
2022/12/20 12:12:50;;;;;;;;;;;9.80;99.90;;;;;;5028820;28;19909;-57
2022/12/20 12:15:34;;;;;;;;;;;9.80;99.90;;;;;;5028641;28;19917;-58
2022/12/20 12:18:10;;;;;;;;;;;9.80;99.90;;;;;;5021583;28;19910;-57
2022/12/20 12:20:44;;;;;;;;;;;9.80;99.90;;;;;;5028509;28;19960;-57
2022/12/20 12:23:41;;;;;;;;;;;9.70;99.90;;;;;;5033254;28;19955;-57
2022/12/20 12:26:20;;;;;;;;;;;9.70;99.90;;;;;;4987419;28;20418;-57
2022/12/20 12:28:49;;;;;;;;;;;9.70;99.90;;;;;;5032079;28;19917;-58
2022/12/20 12:31:20;;;;;;;;;;;9.60;99.90;;;;;;5032339;28;20449;-58
2022/12/20 12:33:49;;;;;;;;;;;9.60;99.90;;;;;;5031968;28;19916;-57
2022/12/20 12:36:27;;;;;;;;;;;9.60;99.90;;;;;;5032050;28;20395;-57
2022/12/20 12:39:05;;;;;;;;;;;9.50;99.90;;;;;;5028346;28;20328;-57
2022/12/20 12:41:41;;;;;;;;;;;9.50;99.90;;;;;;5031621;28;20367;-58
2022/12/20 12:44:19;;;;;;;;;;;9.50;99.90;;;;;;5031069;28;19975;-58
2022/12/20 12:46:47;;;;;;;;;;;9.40;99.90;;;;;;5030851;28;19912;-58
2022/12/20 12:49:16;;;;;;;;;;;9.40;99.90;;;;;;5031848;28;20414;-59
2022/12/20 12:51:49;;;;;;;;;;;9.30;99.90;;;;;;5030098;28;19909;-57
2022/12/20 12:54:26;;;;;;;;;;;9.30;99.90;;;;;;5028406;28;20099;-54
2022/12/20 12:56:52;;;;;;;;;;;9.20;99.90;;;;;;5028304;28;20018;-59
2022/12/20 12:59:20;;;;;;;;;;;9.20;99.90;;;;;;5022914;28;19913;-57
2022/12/20 13:01:45;;;;;;;;;;;9.20;99.90;;;;;;5022245;28;19913;-57
2022/12/20 13:04:17;;;;;;;;;;;9.20;99.90;;;;;;5029242;28;19913;-58
2022/12/20 13:06:43;;;;;;;;;;;9.20;99.90;;;;;;5030498;28;19910;-59
2022/12/20 13:09:24;;;;;;;;;;;9.10;99.90;;;;;;5030519;28;19913;-58
2022/12/20 13:11:50;;;;;;;;;;;9.10;99.90;;;;;;5030720;28;19940;-56
2022/12/20 13:14:18;;;;;;;;;;;9.10;99.90;;;;;;5029705;28;19952;-59
2022/12/20 13:16:44;;;;;;;;;;;9.10;99.90;;;;;;5012972;28;19914;-58
2022/12/20 13:19:12;;;;;;;;;;;9.00;99.90;;;;;;5030205;28;19940;-57
2022/12/20 13:21:39;;;;;;;;;;;9.00;99.90;;;;;;5030391;28;19917;-57
2022/12/20 13:24:23;;;;;;;;;;;9.00;99.90;;;;;;5030008;28;20008;-58
2022/12/20 13:26:50;;;;;;;;;;;8.90;99.90;;;;;;5030494;28;19921;-58
2022/12/20 13:29:26;;;;;;;;;;;8.90;99.90;;;;;;5030080;28;19921;-58
2022/12/20 13:31:52;;;;;;;;;;;8.90;99.90;;;;;;5029881;28;19909;-59
2022/12/20 13:34:34;;;;;;;;;;;8.90;99.90;;;;;;5028830;28;20464;-59
2022/12/20 13:36:59;;;;;;;;;;;8.90;99.90;;;;;;5022085;28;19984;-58
2022/12/20 13:39:29;;;;;;;;;;;8.90;99.90;;;;;;5025532;28;19996;-59
2022/12/20 13:42:13;;;;;;;;;;;8.90;99.90;;;;;;5028433;28;19917;-58
2022/12/20 13:44:41;;;;;;;;;;;8.80;99.90;;;;;;5021860;28;19964;-59
2022/12/20 13:47:30;;;;;;;;;;;8.80;99.90;;;;;;5029743;28;19917;-59
2022/12/20 13:49:59;;;;;;;;;;;8.80;99.90;;;;;;5016182;28;19920;-60
2022/12/20 13:52:29;;;;;;;;;;;8.80;99.90;;;;;;5020578;28;19971;-60
2022/12/20 13:54:57;;;;;;;;;;;8.80;99.90;;;;;;5022563;28;19917;-58
2022/12/20 13:57:38;;;;;;;;;;;8.80;99.90;;;;;;5012076;28;19916;-58
2022/12/20 14:00:04;;;;;;;;;;;8.80;99.90;;;;;;5023376;28;19913;-56
2022/12/20 14:02:35;;;;;;;;;;;8.70;99.90;;;;;;5029651;28;19913;-59
2022/12/20 14:05:04;;;;;;;;;;;8.80;99.90;;;;;;5027987;28;19913;-60
2022/12/20 14:07:30;;;;;;;;;;;8.80;99.90;;;;;;5028324;28;19909;-61
2022/12/20 14:10:00;;;;;;;;;;;8.70;99.90;;;;;;5029588;28;20137;-59
2022/12/20 14:12:26;;;;;;;;;;;8.70;99.90;;;;;;5025259;28;19952;-59
2022/12/20 14:14:55;;;;;;;;;;;8.70;99.90;;;;;;5028877;28;20225;-58
2022/12/20 14:17:20;;;;;;;;;;;8.60;99.90;;;;;;5011732;28;19920;-58
2022/12/20 14:19:46;;;;;;;;;;;8.60;99.90;;;;;;5029440;28;19913;-58
2022/12/20 14:22:11;;;;;;;;;;;8.60;99.90;;;;;;5029647;28;19912;-59
2022/12/20 14:24:38;;;;;;;;;;;8.60;99.90;;;;;;5028992;28;19913;-59
2022/12/20 14:27:04;;;;;;;;;;;8.50;99.90;;;;;;5029112;28;19917;-59
2022/12/20 14:29:31;;;;;;;;;;;8.50;99.90;;;;;;5029238;28;20604;-59
2022/12/20 14:31:56;;;;;;;;;;;8.50;99.90;;;;;;5025096;28;19914;-60
2022/12/20 14:34:25;;;;;;;;;;;8.50;99.90;;;;;;5006731;28;20108;-60
2022/12/20 14:36:51;;;;;;;;;;;8.50;99.90;;;;;;5029854;28;20260;-58
2022/12/20 14:39:19;;;;;;;;;;;8.50;99.90;;;;;;5022984;28;20203;-60
2022/12/20 14:41:45;;;;;;;;;;;8.40;99.90;;;;;;5027870;28;19925;-59
2022/12/20 14:44:19;;;;;;;;;;;8.40;99.90;;;;;;5028298;28;19917;-60
2022/12/20 14:46:49;;;;;;;;;;;8.40;99.90;;;;;;5028626;28;20244;-60
2022/12/20 14:49:21;;;;;;;;;;;8.40;99.90;;;;;;5028783;28;20000;-59